Current | Forecast
Updated: 5:00 AM JST on February 23, 2018
Observed at Osaka Airport, Japan
Temperature 34°F
Windchill 29°F
Humidity 70%
Dew Point 25°F
Wind NNW at 6 mph
Pressure 30.12 in (Falling)
Conditions Scattered Clouds
Visibility 6.2 miles
UV 0 out of 16
Clouds (FEW) : 2500 ft
Scattered Clouds (SCT) : 6000 ft
Yesterday's Maximum 50°F
Yesterday's Minimum 41°F approx.
Yesterday's Heating Degree Days 20 approx.
Sunrise6:34 AM JST
Sunset5:47 PM JST
Moon Rise11:02 AM JST
Moon Set12:01 AM JST
Moon PhaseMoon Phase
Waxing Crescent
Raw METARMETAR RJOO 222000Z 33005KT 9999 FEW025 SCT060 01/M04 Q1020 RMK 1CU025 4SC060 A3013


Monday
. High: 80° F.
Tuesday
. High: 78° F.
Wednesday
. High: 71° F.
Thursday
. High: 77° F.
Friday
. High: 78° F.
Saturday
. High: 77° F.
Sunday
. High: 80° F.
Monday
. High: 80° F.

Units: English | Metric

Find the Weather for any City, State or Zipcode, or Country:

U.S. State List | Severe Weather | Tropical Storms | Ski Conditions
United States | Canada | Central America | South America | Asia | Europe | Australia | Africa | Islands

Weather Underground

© Copyright 2018
The Weather Company, LLC